createdAt,value
2019-03-18T00:02:05.039Z,9.20
2019-03-18T00:04:38.184Z,9.00
2019-03-18T00:07:10.875Z,8.90
2019-03-18T00:09:43.914Z,8.90
2019-03-18T00:12:15.954Z,8.90
2019-03-18T00:15:00.468Z,8.90
2019-03-18T00:17:23.196Z,9.00
2019-03-18T00:19:56.698Z,9.00
2019-03-18T00:22:30.293Z,9.00
2019-03-18T00:25:03.376Z,9.00
2019-03-18T00:27:36.074Z,9.00
2019-03-18T00:30:10.796Z,9.00
2019-03-18T00:32:44.014Z,9.00
2019-03-18T00:35:17.335Z,9.00
2019-03-18T00:37:50.674Z,9.00
2019-03-18T00:40:23.054Z,9.00
2019-03-18T00:42:55.633Z,9.00
2019-03-18T00:45:28.899Z,8.90
2019-03-18T00:48:01.037Z,8.90
2019-03-18T00:50:32.695Z,8.80
2019-03-18T00:53:05.674Z,8.80
2019-03-18T00:55:38.734Z,8.80
2019-03-18T00:58:11.004Z,8.70
2019-03-18T01:00:43.741Z,8.70
2019-03-18T01:03:16.494Z,8.80
2019-03-18T01:05:49.574Z,8.80
2019-03-18T01:08:22.894Z,8.80
2019-03-18T01:10:54.874Z,8.70
2019-03-18T01:13:27.574Z,8.70
2019-03-18T01:15:59.414Z,8.80
2019-03-18T01:18:31.994Z,8.80
2019-03-18T01:21:05.054Z,8.80
2019-03-18T01:23:38.337Z,8.80
2019-03-18T01:26:10.695Z,8.90
2019-03-18T01:28:43.854Z,8.90
2019-03-18T01:31:16.394Z,8.90
2019-03-18T01:33:49.915Z,8.90
2019-03-18T01:36:22.319Z,8.80
2019-03-18T01:38:55.199Z,8.80
2019-03-18T01:41:28.234Z,8.70
2019-03-18T01:44:01.815Z,8.60
2019-03-18T01:46:34.614Z,8.60
2019-03-18T01:49:07.494Z,8.50
2019-03-18T01:51:40.234Z,8.60
2019-03-18T01:54:13.117Z,8.60
2019-03-18T01:56:45.719Z,8.60
2019-03-18T01:59:18.337Z,8.60
2019-03-18T02:01:51.274Z,8.60
2019-03-18T02:04:25.006Z,8.60
2019-03-18T02:06:58.634Z,8.60
2019-03-18T02:09:32.057Z,8.70
2019-03-18T02:12:05.254Z,8.70
2019-03-18T02:14:37.534Z,8.60
2019-03-18T02:17:10.356Z,8.50
2019-03-18T02:19:43.574Z,8.40
2019-03-18T02:22:18.895Z,8.30
2019-03-18T02:24:51.694Z,8.30
2019-03-18T02:27:25.074Z,8.40
2019-03-18T02:30:00.454Z,8.50
2019-03-18T02:32:33.071Z,8.50
2019-03-18T02:35:06.001Z,8.60
2019-03-18T02:37:38.921Z,8.60
2019-03-18T02:40:11.798Z,8.60
2019-03-18T02:42:44.074Z,8.60
2019-03-18T02:45:16.735Z,8.50
2019-03-18T02:47:49.995Z,8.40
2019-03-18T02:50:23.156Z,8.40
2019-03-18T02:52:57.015Z,8.40
2019-03-18T02:55:29.395Z,8.50
2019-03-18T02:58:01.855Z,8.50
2019-03-18T03:00:35.135Z,8.40
2019-03-18T03:03:07.615Z,8.50
2019-03-18T03:05:40.335Z,8.50
2019-03-18T03:08:13.654Z,8.40
2019-03-18T03:10:46.694Z,8.20
2019-03-18T03:13:20.041Z,8.10
2019-03-18T03:15:53.556Z,8.20
2019-03-18T03:18:26.334Z,8.20
2019-03-18T03:20:58.536Z,8.30
2019-03-18T03:23:30.934Z,8.30
2019-03-18T03:26:04.065Z,8.30
2019-03-18T03:28:36.214Z,8.20
2019-03-18T03:31:08.495Z,8.20
2019-03-18T03:33:41.858Z,8.20
2019-03-18T03:36:15.404Z,8.20
2019-03-18T03:38:48.762Z,8.30
2019-03-18T03:41:21.383Z,8.30
2019-03-18T03:43:53.182Z,8.30
2019-03-18T03:46:41.833Z,8.30
2019-03-18T03:49:00.082Z,8.20
2019-03-18T03:51:32.401Z,8.20
2019-03-18T03:54:05.223Z,8.10
2019-03-18T03:56:38.121Z,8.10
2019-03-18T03:59:10.942Z,8.00
2019-03-18T04:01:43.999Z,7.90
2019-03-18T04:04:16.623Z,7.90
2019-03-18T04:06:49.522Z,7.90
2019-03-18T04:09:22.301Z,7.90
2019-03-18T04:11:55.102Z,7.90
2019-03-18T04:14:27.536Z,8.00
2019-03-18T04:17:02.416Z,8.00
2019-03-18T04:19:35.185Z,8.00
2019-03-18T04:22:08.205Z,8.00
2019-03-18T04:24:40.650Z,7.90
2019-03-18T04:27:14.001Z,8.00
2019-03-18T04:29:47.084Z,7.90
2019-03-18T04:32:18.882Z,7.90
2019-03-18T04:34:51.544Z,7.90
2019-03-18T04:37:24.321Z,7.70
2019-03-18T04:39:57.342Z,7.70
2019-03-18T04:42:29.261Z,7.70
2019-03-18T04:45:02.281Z,7.70
2019-03-18T04:47:35.282Z,7.70
2019-03-18T04:50:08.641Z,7.70
2019-03-18T04:52:41.680Z,7.60
2019-03-18T04:55:14.023Z,7.50
2019-03-18T04:57:46.116Z,7.50
2019-03-18T05:00:19.422Z,7.50
2019-03-18T05:02:51.481Z,7.50
2019-03-18T05:05:23.924Z,7.30
2019-03-18T05:07:57.202Z,7.20
2019-03-18T05:10:30.281Z,7.20
2019-03-18T05:13:03.101Z,7.10
2019-03-18T05:15:35.582Z,7.20
2019-03-18T05:18:08.245Z,7.20
2019-03-18T05:20:41.361Z,7.10
2019-03-18T05:23:14.144Z,7.10
2019-03-18T05:25:46.800Z,7.10
2019-03-18T05:28:19.801Z,7.20
2019-03-18T05:30:52.381Z,7.20
2019-03-18T05:33:25.262Z,7.20
2019-03-18T05:35:58.002Z,7.20
2019-03-18T05:38:31.022Z,7.10
2019-03-18T05:41:05.241Z,7.10
2019-03-18T05:43:38.601Z,7.00
2019-03-18T05:46:11.101Z,7.00
2019-03-18T05:48:43.021Z,7.00
2019-03-18T05:51:16.830Z,6.90
2019-03-18T05:53:48.963Z,6.90
2019-03-18T05:56:22.387Z,6.90
2019-03-18T05:58:55.721Z,6.80
2019-03-18T06:01:29.002Z,6.80
2019-03-18T06:04:02.103Z,6.70
2019-03-18T06:06:33.961Z,6.70
2019-03-18T06:09:07.301Z,6.60
2019-03-18T06:11:40.621Z,6.50
2019-03-18T06:14:13.881Z,6.60
2019-03-18T06:16:46.241Z,6.50
2019-03-18T06:19:19.661Z,6.50
2019-03-18T06:21:52.881Z,6.40
2019-03-18T06:24:25.762Z,6.50
2019-03-18T06:26:59.101Z,6.50
2019-03-18T06:29:31.888Z,6.50
2019-03-18T06:32:04.681Z,6.60
2019-03-18T06:34:37.980Z,6.60
2019-03-18T06:37:11.203Z,6.70
2019-03-18T06:39:44.001Z,6.80
2019-03-18T06:42:18.586Z,6.80
2019-03-18T06:44:50.181Z,6.80
2019-03-18T06:47:23.400Z,6.80
2019-03-18T06:49:56.301Z,6.80
2019-03-18T06:52:29.204Z,6.70
2019-03-18T06:55:01.980Z,6.90
2019-03-18T06:57:35.181Z,6.90
2019-03-18T07:00:09.521Z,6.90
2019-03-18T07:02:42.601Z,6.90
2019-03-18T07:05:16.441Z,6.80
2019-03-18T07:07:48.752Z,6.80
2019-03-18T07:10:21.983Z,6.90
2019-03-18T07:12:54.701Z,6.90
2019-03-18T07:15:28.302Z,6.80
2019-03-18T07:18:01.129Z,6.90
2019-03-18T07:20:35.001Z,6.90
2019-03-18T07:23:07.245Z,6.90
2019-03-18T07:25:39.926Z,6.90
2019-03-18T07:28:13.264Z,6.90
2019-03-18T07:30:47.122Z,7.00
2019-03-18T07:33:20.020Z,7.10
2019-03-18T07:35:52.421Z,7.00
2019-03-18T07:38:24.382Z,7.10
2019-03-18T07:40:56.641Z,7.20
2019-03-18T07:43:29.881Z,7.20
2019-03-18T07:46:02.923Z,7.30
2019-03-18T07:48:35.422Z,7.40
2019-03-18T07:51:08.982Z,7.50
2019-03-18T07:53:40.961Z,7.50
2019-03-18T07:56:14.301Z,7.40
2019-03-18T07:58:47.022Z,7.50
2019-03-18T08:01:19.942Z,7.60
2019-03-18T08:03:52.704Z,7.80
2019-03-18T08:06:24.901Z,7.90
2019-03-18T08:08:57.782Z,7.90
2019-03-18T08:11:30.814Z,7.80
2019-03-18T08:14:02.469Z,7.70
2019-03-18T08:16:34.986Z,7.70
2019-03-18T08:19:07.387Z,7.80
2019-03-18T08:21:40.666Z,8.00
2019-03-18T08:24:14.835Z,8.00
2019-03-18T08:26:49.506Z,8.10
2019-03-18T08:29:22.266Z,8.10
2019-03-18T08:31:55.087Z,8.20
2019-03-18T08:34:27.347Z,8.30
2019-03-18T08:37:00.566Z,8.30
2019-03-18T08:39:33.506Z,8.30
2019-03-18T08:42:07.527Z,8.40
2019-03-18T08:44:40.605Z,8.40
2019-03-18T08:47:14.700Z,8.40
2019-03-18T08:49:47.420Z,8.50
2019-03-18T08:52:18.589Z,8.60
2019-03-18T08:54:51.246Z,8.60
2019-03-18T08:57:24.540Z,8.60
2019-03-18T08:59:57.021Z,8.70
2019-03-18T09:02:30.143Z,8.90
2019-03-18T09:05:02.820Z,9.00
2019-03-18T09:07:35.322Z,8.90
2019-03-18T09:10:08.032Z,9.00
2019-03-18T09:12:40.420Z,9.00
2019-03-18T09:15:12.541Z,9.00
2019-03-18T09:17:45.560Z,9.00
2019-03-18T09:20:18.560Z,9.00
2019-03-18T09:22:50.800Z,9.00
2019-03-18T09:25:22.831Z,9.10
2019-03-18T09:27:55.800Z,9.20
2019-03-18T09:30:27.680Z,9.30
2019-03-18T09:33:00.741Z,9.40
2019-03-18T09:35:33.982Z,9.50
2019-03-18T09:38:06.621Z,9.60
2019-03-18T09:40:40.367Z,9.70
2019-03-18T09:43:13.681Z,9.70
2019-03-18T09:45:45.739Z,9.80
2019-03-18T09:48:18.900Z,9.70
2019-03-18T09:50:51.401Z,9.80
2019-03-18T09:53:23.821Z,9.90
2019-03-18T09:55:56.503Z,10.00
2019-03-18T09:58:28.120Z,10.10
2019-03-18T10:01:00.521Z,10.20
2019-03-18T10:03:33.240Z,10.10
2019-03-18T10:06:05.543Z,10.10
2019-03-18T10:08:38.303Z,10.00
2019-03-18T10:11:11.540Z,10.00
2019-03-18T10:13:44.582Z,9.80
2019-03-18T10:16:17.701Z,9.90
2019-03-18T10:18:50.701Z,10.00
2019-03-18T10:21:24.060Z,9.90
2019-03-18T10:23:56.600Z,9.90
2019-03-18T10:26:28.740Z,9.80
2019-03-18T10:29:02.000Z,9.80
2019-03-18T10:31:34.542Z,9.80
2019-03-18T10:34:07.481Z,9.80
2019-03-18T10:36:40.081Z,9.80
2019-03-18T10:39:10.954Z,10.30
2019-03-18T10:41:43.095Z,10.50
2019-03-18T10:44:15.797Z,10.50
2019-03-18T10:46:48.595Z,10.50
2019-03-18T10:49:21.274Z,10.50
2019-03-18T10:51:54.714Z,10.60
2019-03-18T10:54:31.063Z,10.60
2019-03-18T10:57:00.433Z,10.70
2019-03-18T10:59:33.096Z,10.80
2019-03-18T11:02:05.575Z,10.70
2019-03-18T11:04:38.383Z,10.60
2019-03-18T11:07:10.963Z,10.60
2019-03-18T11:09:43.863Z,10.60
2019-03-18T11:12:16.227Z,10.60
2019-03-18T11:14:50.042Z,10.60
2019-03-18T11:17:23.424Z,10.60
2019-03-18T11:19:58.798Z,10.70
2019-03-18T11:22:31.020Z,10.70
2019-03-18T11:25:03.387Z,10.60
2019-03-18T11:27:36.045Z,10.70
2019-03-18T11:30:09.103Z,10.80
2019-03-18T11:32:42.145Z,10.90
2019-03-18T11:35:14.463Z,11.40
2019-03-18T11:37:47.328Z,11.70
2019-03-18T11:40:20.377Z,12.00
2019-03-18T11:42:52.768Z,12.20
2019-03-18T11:45:25.879Z,12.20
2019-03-18T11:47:59.157Z,12.10
2019-03-18T11:50:32.495Z,12.00
2019-03-18T11:53:13.779Z,11.90
2019-03-18T11:55:38.254Z,11.70
2019-03-18T11:58:11.229Z,11.70
2019-03-18T12:00:43.803Z,11.70
2019-03-18T12:03:16.743Z,11.60
2019-03-18T12:05:50.166Z,11.60
2019-03-18T12:08:23.763Z,11.50
2019-03-18T12:10:56.237Z,11.60
2019-03-18T12:13:28.796Z,11.60
2019-03-18T12:16:01.369Z,11.60
2019-03-18T12:18:34.416Z,11.50
2019-03-18T12:21:06.663Z,11.40
2019-03-18T12:23:39.666Z,11.50
2019-03-18T12:26:12.144Z,11.60
2019-03-18T12:28:45.484Z,11.70
2019-03-18T12:31:17.544Z,11.80
2019-03-18T12:33:50.484Z,12.00
2019-03-18T12:36:23.704Z,12.20
2019-03-18T12:38:56.385Z,12.30
2019-03-18T12:41:29.944Z,12.40
2019-03-18T12:44:03.043Z,12.40
2019-03-18T12:46:36.723Z,12.40
2019-03-18T12:49:09.944Z,12.50
2019-03-18T12:51:42.325Z,12.50
2019-03-18T12:54:14.564Z,12.40
2019-03-18T12:56:47.726Z,12.40
2019-03-18T12:59:20.244Z,12.40
2019-03-18T13:01:53.124Z,12.40
2019-03-18T13:04:26.465Z,12.40
2019-03-18T13:06:59.326Z,12.40
2019-03-18T13:09:32.025Z,12.30
2019-03-18T13:12:05.684Z,12.30
2019-03-18T13:14:38.644Z,12.30
2019-03-18T13:17:11.425Z,12.30
2019-03-18T13:19:43.846Z,12.30
2019-03-18T13:22:16.844Z,12.40
2019-03-18T13:24:50.384Z,12.30
2019-03-18T13:27:22.344Z,12.20
2019-03-18T13:29:54.826Z,12.20
2019-03-18T13:32:27.644Z,12.30
2019-03-18T13:35:00.093Z,12.10
2019-03-18T13:37:32.225Z,12.00
2019-03-18T13:40:04.746Z,11.80
2019-03-18T13:42:36.724Z,11.70
2019-03-18T13:45:11.326Z,11.50
2019-03-18T13:47:44.625Z,11.30
2019-03-18T13:50:17.867Z,11.30
2019-03-18T13:52:50.164Z,11.40
2019-03-18T13:55:23.404Z,11.40
2019-03-18T13:57:56.924Z,11.40
2019-03-18T14:00:31.349Z,11.30
2019-03-18T14:03:04.648Z,11.50
2019-03-18T14:05:37.765Z,11.50
2019-03-18T14:08:10.504Z,11.30
2019-03-18T14:10:42.805Z,11.20
2019-03-18T14:13:15.785Z,11.20
2019-03-18T14:15:48.828Z,11.20
2019-03-18T14:18:21.244Z,11.20
2019-03-18T14:20:54.157Z,11.10
2019-03-18T14:23:27.428Z,11.20
2019-03-18T14:26:01.285Z,11.40
2019-03-18T14:28:34.246Z,11.50
2019-03-18T14:31:07.616Z,11.60
2019-03-18T14:33:40.005Z,11.60
2019-03-18T14:36:12.245Z,11.60
2019-03-18T14:38:48.265Z,11.50
2019-03-18T14:41:20.905Z,11.50
2019-03-18T14:43:53.613Z,11.50
2019-03-18T14:46:26.931Z,11.40
2019-03-18T14:48:59.510Z,11.40
2019-03-18T14:51:31.629Z,11.30
2019-03-18T14:54:03.937Z,11.30
2019-03-18T14:56:36.669Z,11.20
2019-03-18T14:59:08.291Z,11.10
2019-03-18T15:01:40.713Z,11.00
2019-03-18T15:04:14.090Z,11.00
2019-03-18T15:06:47.089Z,10.90
2019-03-18T15:09:20.132Z,11.00
2019-03-18T15:11:52.872Z,11.10
2019-03-18T15:14:25.311Z,10.90
2019-03-18T15:16:58.950Z,11.00
2019-03-18T15:19:33.131Z,11.00
2019-03-18T15:22:06.670Z,11.00
2019-03-18T15:24:40.310Z,11.00
2019-03-18T15:27:13.812Z,10.90
2019-03-18T15:29:46.230Z,10.90
2019-03-18T15:32:18.810Z,10.90
2019-03-18T15:34:51.770Z,10.80
2019-03-18T15:37:26.630Z,10.90
2019-03-18T15:39:59.709Z,10.80
2019-03-18T15:42:33.531Z,10.80
2019-03-18T15:45:07.430Z,10.90
2019-03-18T15:47:41.349Z,10.90
2019-03-18T15:50:15.916Z,10.80
2019-03-18T15:52:49.109Z,10.80
2019-03-18T15:55:24.120Z,10.80
2019-03-18T15:57:56.773Z,10.80
2019-03-18T16:00:30.329Z,10.70
2019-03-18T16:03:03.351Z,10.70
2019-03-18T16:05:36.870Z,10.80
2019-03-18T16:08:09.891Z,10.80
2019-03-18T16:10:42.270Z,10.70
2019-03-18T16:13:15.331Z,10.80
2019-03-18T16:15:49.133Z,10.80
2019-03-18T16:18:22.802Z,10.80
2019-03-18T16:20:56.230Z,10.70
2019-03-18T16:23:28.491Z,10.80
2019-03-18T16:26:01.683Z,10.90
2019-03-18T16:28:35.110Z,10.80
2019-03-18T16:31:07.790Z,10.80
2019-03-18T16:33:42.149Z,10.80
2019-03-18T16:36:15.429Z,10.80
2019-03-18T16:38:49.106Z,10.80
2019-03-18T16:41:22.575Z,10.80
2019-03-18T16:43:55.709Z,10.70
2019-03-18T16:46:28.710Z,10.70
2019-03-18T16:49:01.990Z,10.70
2019-03-18T16:51:34.270Z,10.70
2019-03-18T16:54:07.591Z,10.60
2019-03-18T16:56:41.151Z,10.60
2019-03-18T16:59:13.530Z,10.50
2019-03-18T17:01:46.110Z,10.30
2019-03-18T17:04:19.669Z,10.30
2019-03-18T17:06:52.771Z,10.20
2019-03-18T17:09:25.679Z,10.00
2019-03-18T17:11:58.049Z,9.90
2019-03-18T17:14:30.773Z,9.90
2019-03-18T17:17:03.653Z,9.70
2019-03-18T17:19:38.830Z,9.60
2019-03-18T17:22:11.590Z,9.60
2019-03-18T17:24:44.649Z,9.60
2019-03-18T17:27:17.211Z,9.60
2019-03-18T17:29:50.750Z,9.60
2019-03-18T17:32:24.449Z,9.60
2019-03-18T17:34:56.554Z,9.60
2019-03-18T17:37:28.868Z,9.60
2019-03-18T17:40:02.352Z,9.70
2019-03-18T17:42:34.469Z,9.70
2019-03-18T17:45:07.452Z,9.70
2019-03-18T17:47:40.319Z,9.70
2019-03-18T17:50:15.351Z,9.60
2019-03-18T17:53:00.966Z,9.60
2019-03-18T17:55:22.657Z,9.50
2019-03-18T17:57:55.392Z,9.50
2019-03-18T18:00:33.531Z,9.40
2019-03-18T18:03:06.391Z,9.30
2019-03-18T18:05:39.509Z,9.00
2019-03-18T18:08:12.532Z,8.70
2019-03-18T18:10:45.050Z,8.50
2019-03-18T18:13:17.939Z,8.50
2019-03-18T18:15:50.552Z,8.60
2019-03-18T18:18:23.831Z,8.70
2019-03-18T18:20:56.071Z,8.80
2019-03-18T18:23:29.391Z,8.90
2019-03-18T18:26:02.571Z,8.80
2019-03-18T18:28:35.171Z,8.80
2019-03-18T18:31:07.713Z,8.80
2019-03-18T18:33:41.051Z,8.80
2019-03-18T18:36:13.453Z,8.80
2019-03-18T18:38:46.493Z,8.90
2019-03-18T18:41:19.431Z,8.90
2019-03-18T18:43:51.571Z,8.90
2019-03-18T18:46:25.211Z,8.80
2019-03-18T18:48:58.371Z,8.80
2019-03-18T18:51:31.431Z,8.70
2019-03-18T18:54:03.891Z,8.70
2019-03-18T18:56:36.331Z,8.60
2019-03-18T18:59:09.318Z,8.60
2019-03-18T19:01:42.332Z,8.70
2019-03-18T19:04:14.952Z,8.70
2019-03-18T19:06:47.934Z,8.70
2019-03-18T19:09:20.879Z,8.70
2019-03-18T19:11:54.171Z,8.60
2019-03-18T19:14:26.932Z,8.50
2019-03-18T19:16:59.031Z,8.60
2019-03-18T19:19:32.791Z,8.60
2019-03-18T19:22:05.451Z,8.70
2019-03-18T19:24:37.852Z,8.70
2019-03-18T19:27:10.812Z,8.80
2019-03-18T19:29:43.771Z,8.70
2019-03-18T19:32:16.591Z,8.70
2019-03-18T19:34:48.673Z,8.80
2019-03-18T19:37:20.892Z,8.70
2019-03-18T19:39:54.211Z,8.70
2019-03-18T19:42:27.332Z,8.70
2019-03-18T19:44:59.891Z,8.70
2019-03-18T19:47:32.892Z,8.60
2019-03-18T19:50:06.331Z,8.50
2019-03-18T19:52:39.492Z,8.50
2019-03-18T19:55:13.349Z,8.40
2019-03-18T19:57:46.634Z,8.40
2019-03-18T20:00:20.431Z,8.50
2019-03-18T20:02:52.392Z,8.50
2019-03-18T20:05:24.697Z,8.40
2019-03-18T20:07:57.932Z,8.40
2019-03-18T20:10:30.654Z,8.40
2019-03-18T20:13:04.816Z,8.40
2019-03-18T20:15:37.612Z,8.20
2019-03-18T20:18:09.972Z,8.00
2019-03-18T20:20:43.452Z,8.10
2019-03-18T20:23:15.771Z,8.10
2019-03-18T20:25:48.844Z,8.10
2019-03-18T20:28:21.680Z,8.00
2019-03-18T20:30:55.260Z,8.10
2019-03-18T20:33:27.841Z,8.10
2019-03-18T20:36:00.240Z,8.00
2019-03-18T20:38:33.306Z,8.10
2019-03-18T20:41:06.121Z,8.10
2019-03-18T20:43:39.169Z,8.10
2019-03-18T20:46:12.060Z,8.10
2019-03-18T20:48:45.401Z,8.10
2019-03-18T20:51:18.440Z,8.10
2019-03-18T20:53:50.760Z,8.10
2019-03-18T20:56:23.922Z,8.00
2019-03-18T20:58:56.445Z,8.00
2019-03-18T21:01:28.979Z,8.10
2019-03-18T21:04:01.519Z,8.00
2019-03-18T21:06:34.960Z,7.90
2019-03-18T21:09:09.641Z,7.90
2019-03-18T21:11:42.949Z,7.90
2019-03-18T21:14:16.568Z,7.90
2019-03-18T21:16:49.327Z,7.90
2019-03-18T21:19:21.534Z,7.90
2019-03-18T21:21:54.627Z,7.80
2019-03-18T21:24:27.587Z,7.80
2019-03-18T21:27:01.026Z,7.80
2019-03-18T21:29:33.788Z,7.70
2019-03-18T21:32:06.309Z,7.70
2019-03-18T21:34:38.990Z,7.70
2019-03-18T21:37:12.547Z,7.70
2019-03-18T21:39:45.387Z,7.80
2019-03-18T21:42:17.567Z,7.70
2019-03-18T21:44:50.787Z,7.70
2019-03-18T21:47:24.527Z,7.60
2019-03-18T21:49:57.227Z,7.70
2019-03-18T21:52:30.790Z,7.70
2019-03-18T21:55:03.587Z,7.70
2019-03-18T21:57:37.226Z,7.70
2019-03-18T22:00:10.187Z,7.70
2019-03-18T22:02:43.395Z,7.80
2019-03-18T22:05:16.872Z,7.80
2019-03-18T22:07:49.831Z,7.70
2019-03-18T22:10:22.069Z,7.70
2019-03-18T22:12:55.427Z,7.70
2019-03-18T22:15:28.407Z,7.80
2019-03-18T22:18:00.645Z,7.80
2019-03-18T22:20:33.307Z,7.80
2019-03-18T22:23:06.853Z,7.80
2019-03-18T22:25:39.426Z,7.70
2019-03-18T22:28:12.168Z,7.70
2019-03-18T22:30:44.918Z,7.70
2019-03-18T22:33:17.507Z,7.70
2019-03-18T22:35:49.767Z,7.60
2019-03-18T22:38:22.571Z,7.50
2019-03-18T22:40:54.947Z,7.40
2019-03-18T22:43:28.228Z,7.40
2019-03-18T22:46:00.307Z,7.50
2019-03-18T22:48:32.640Z,7.40
2019-03-18T22:51:05.207Z,7.40
2019-03-18T22:53:37.728Z,7.30
2019-03-18T22:56:10.208Z,7.30
2019-03-18T22:58:43.408Z,7.30
2019-03-18T23:01:19.007Z,7.20
2019-03-18T23:03:51.587Z,7.10
2019-03-18T23:06:24.467Z,7.10
2019-03-18T23:08:57.087Z,7.10
2019-03-18T23:11:29.610Z,7.20
2019-03-18T23:14:02.748Z,7.20
2019-03-18T23:16:35.047Z,7.10
2019-03-18T23:19:08.108Z,7.10
2019-03-18T23:21:41.128Z,7.00
2019-03-18T23:24:14.629Z,7.00
2019-03-18T23:26:48.187Z,7.00
2019-03-18T23:29:21.527Z,6.90
2019-03-18T23:31:54.707Z,7.00
2019-03-18T23:34:27.107Z,6.90
2019-03-18T23:37:00.078Z,6.80
2019-03-18T23:39:33.137Z,6.80
2019-03-18T23:42:05.357Z,6.80
2019-03-18T23:44:38.376Z,7.00
2019-03-18T23:47:12.176Z,7.10
2019-03-18T23:49:47.610Z,7.10
2019-03-18T23:52:20.296Z,7.00
2019-03-18T23:54:54.116Z,6.90
2019-03-18T23:57:27.117Z,7.00
2019-03-18T23:59:59.556Z,7.00
